Time;durP1;ratioP1;P1;durP2;ratioP2;P2;SDS_P1;SDS_P2;PMS_P1;PMS_P2;Temp;Humidity;BMP_temperature;BMP_pressure;BME280_temperature;BME280_humidity;BME280_pressure;Samples;Min_cycle;Max_cycle;Signal;HPM_P1;HPM_P2
2021/08/25 00:00:48;;;;;;;11.77;7.33;;;;;;;;;;5085212;28;20220;-80
2021/08/25 00:03:18;;;;;;;13.13;7.90;;;;;;;;;;5089384;28;20592;-80
2021/08/25 00:05:46;;;;;;;13.17;7.50;;;;;;;;;;5080615;28;20240;-80
2021/08/25 00:08:13;;;;;;;11.50;7.17;;;;;;;;;;5072512;28;20237;-80
2021/08/25 00:10:40;;;;;;;11.37;7.53;;;;;;;;;;5078561;28;20688;-80
2021/08/25 00:13:08;;;;;;;9.67;7.27;;;;;;;;;;5092491;28;20195;-80
2021/08/25 00:15:36;;;;;;;18.87;7.50;;;;;;;;;;5090365;28;20689;-80
2021/08/25 00:18:03;;;;;;;13.47;7.50;;;;;;;;;;5092121;28;20285;-79
2021/08/25 00:20:32;;;;;;;11.03;7.23;;;;;;;;;;5091023;28;20226;-80
2021/08/25 00:22:59;;;;;;;12.30;7.27;;;;;;;;;;5090484;28;20290;-80
2021/08/25 00:25:27;;;;;;;10.37;7.50;;;;;;;;;;5078818;28;20290;-80
2021/08/25 00:27:55;;;;;;;13.57;7.50;;;;;;;;;;5089055;28;20673;-80
2021/08/25 00:30:22;;;;;;;17.07;8.37;;;;;;;;;;5082170;28;20233;-80
2021/08/25 00:32:49;;;;;;;13.00;7.90;;;;;;;;;;5087444;28;20753;-81
2021/08/25 00:35:17;;;;;;;11.90;7.37;;;;;;;;;;5078049;28;21044;-80
2021/08/25 00:37:46;;;;;;;12.97;8.17;;;;;;;;;;5072407;28;20252;-79
2021/08/25 00:40:13;;;;;;;10.37;7.33;;;;;;;;;;5076311;28;20285;-80
2021/08/25 00:42:41;;;;;;;11.77;7.87;;;;;;;;;;5086090;28;20647;-80
2021/08/25 00:45:09;;;;;;;13.77;7.70;;;;;;;;;;5077177;28;20256;-80
2021/08/25 00:47:36;;;;;;;11.97;8.17;;;;;;;;;;5081847;28;20231;-80
2021/08/25 00:50:04;;;;;;;13.23;8.03;;;;;;;;;;5085550;28;20286;-80
2021/08/25 00:52:31;;;;;;;13.70;8.30;;;;;;;;;;5073907;28;20286;-80
2021/08/25 00:55:00;;;;;;;12.73;7.73;;;;;;;;;;5088667;28;20637;-80
2021/08/25 00:57:28;;;;;;;12.80;8.43;;;;;;;;;;5091543;28;20328;-80
2021/08/25 00:59:55;;;;;;;11.20;8.83;;;;;;;;;;5083790;28;20575;-80
2021/08/25 01:02:27;;;;;;;12.90;8.77;;;;;;;;;;5081149;28;20326;-80
2021/08/25 01:04:55;;;;;;;10.27;8.50;;;;;;;;;;5072484;28;20199;-80
2021/08/25 01:07:23;;;;;;;14.90;8.90;;;;;;;;;;5072026;28;20287;-80
2021/08/25 01:09:51;;;;;;;12.20;9.23;;;;;;;;;;5076138;28;20203;-80
2021/08/25 01:12:20;;;;;;;12.50;9.37;;;;;;;;;;5071146;28;20231;-80
2021/08/25 01:14:47;;;;;;;12.90;8.93;;;;;;;;;;5072013;28;20207;-80
2021/08/25 01:17:18;;;;;;;11.47;9.40;;;;;;;;;;5071229;28;20215;-80
2021/08/25 01:19:48;;;;;;;14.03;9.80;;;;;;;;;;5084517;28;20694;-80
2021/08/25 01:22:17;;;;;;;12.80;9.63;;;;;;;;;;5087201;28;20194;-80
2021/08/25 01:24:45;;;;;;;13.97;9.70;;;;;;;;;;5077989;28;20289;-80
2021/08/25 01:27:12;;;;;;;16.73;10.53;;;;;;;;;;5085472;28;20233;-80
2021/08/25 01:29:43;;;;;;;15.97;10.47;;;;;;;;;;5081414;28;20286;-81
2021/08/25 01:32:11;;;;;;;13.23;9.97;;;;;;;;;;5081611;28;20199;-80
2021/08/25 01:34:53;;;;;;;11.03;9.83;;;;;;;;;;5091127;28;20285;-80
2021/08/25 01:37:20;;;;;;;15.30;10.73;;;;;;;;;;5089204;28;20266;-81
2021/08/25 01:39:47;;;;;;;13.47;10.47;;;;;;;;;;5077636;28;20278;-81
2021/08/25 01:42:15;;;;;;;13.40;10.43;;;;;;;;;;5091311;28;20293;-80
2021/08/25 01:44:44;;;;;;;17.07;10.67;;;;;;;;;;5091109;28;20678;-81
2021/08/25 01:47:12;;;;;;;15.10;10.27;;;;;;;;;;5095633;28;20233;-80
2021/08/25 01:49:39;;;;;;;11.77;10.47;;;;;;;;;;5095426;28;20278;-80
2021/08/25 01:52:06;;;;;;;15.67;10.27;;;;;;;;;;5092388;28;20226;-80
2021/08/25 01:54:34;;;;;;;15.20;10.70;;;;;;;;;;5083251;28;20657;-81
2021/08/25 01:57:01;;;;;;;13.30;10.30;;;;;;;;;;5078731;28;20675;-80
2021/08/25 01:59:29;;;;;;;15.47;10.80;;;;;;;;;;5094630;28;20878;-80
2021/08/25 02:01:57;;;;;;;17.27;10.83;;;;;;;;;;5094623;28;20296;-80
2021/08/25 02:04:24;;;;;;;13.00;10.87;;;;;;;;;;5086822;28;20285;-80
2021/08/25 02:06:53;;;;;;;11.77;10.23;;;;;;;;;;5093704;28;20712;-80
2021/08/25 02:09:21;;;;;;;12.27;10.97;;;;;;;;;;5084987;28;20231;-80
2021/08/25 02:11:48;;;;;;;15.10;11.10;;;;;;;;;;5075067;28;20199;-80
2021/08/25 02:14:15;;;;;;;15.77;10.67;;;;;;;;;;5074340;28;20294;-80
2021/08/25 02:16:43;;;;;;;11.77;10.53;;;;;;;;;;5074312;28;20214;-79
2021/08/25 02:19:12;;;;;;;11.73;10.43;;;;;;;;;;5082420;28;20214;-80
2021/08/25 02:21:39;;;;;;;13.10;10.57;;;;;;;;;;5084276;28;20266;-80
2021/08/25 02:24:06;;;;;;;14.33;10.80;;;;;;;;;;5080198;28;20233;-80
2021/08/25 02:26:33;;;;;;;13.83;10.83;;;;;;;;;;5083155;28;20274;-81
2021/08/25 02:29:00;;;;;;;14.67;10.43;;;;;;;;;;5086310;28;20705;-81
2021/08/25 02:31:28;;;;;;;16.10;10.77;;;;;;;;;;5094586;28;20289;-80
2021/08/25 02:33:55;;;;;;;13.27;11.00;;;;;;;;;;5094291;28;20247;-80
2021/08/25 02:36:23;;;;;;;14.20;10.47;;;;;;;;;;5092908;28;20325;-81
2021/08/25 02:38:51;;;;;;;12.10;10.10;;;;;;;;;;5087485;28;20223;-81
2021/08/25 02:41:20;;;;;;;17.03;11.20;;;;;;;;;;5078936;28;20289;-80
2021/08/25 02:43:47;;;;;;;13.47;10.73;;;;;;;;;;5089833;28;20301;-80
2021/08/25 02:46:15;;;;;;;14.73;10.80;;;;;;;;;;5088013;28;20191;-80
2021/08/25 02:48:42;;;;;;;14.00;10.97;;;;;;;;;;5092864;28;20237;-80
2021/08/25 02:51:10;;;;;;;15.57;11.33;;;;;;;;;;5073959;28;20238;-80
2021/08/25 02:53:39;;;;;;;14.80;10.60;;;;;;;;;;5073574;28;20286;-80
2021/08/25 02:56:06;;;;;;;15.20;11.07;;;;;;;;;;5069668;28;20325;-80
2021/08/25 02:58:33;;;;;;;13.43;10.90;;;;;;;;;;5080765;28;20198;-80
2021/08/25 03:01:00;;;;;;;14.47;10.67;;;;;;;;;;5091477;28;20289;-80
2021/08/25 03:03:27;;;;;;;14.90;10.17;;;;;;;;;;5091229;28;20246;-81
2021/08/25 03:05:55;;;;;;;14.43;9.90;;;;;;;;;;5082505;28;20234;-80
2021/08/25 03:08:22;;;;;;;16.17;10.60;;;;;;;;;;5093229;28;20229;-81
2021/08/25 03:10:50;;;;;;;13.23;10.37;;;;;;;;;;5092620;28;20237;-80
2021/08/25 03:13:18;;;;;;;12.67;10.03;;;;;;;;;;5085408;28;20398;-80
2021/08/25 03:15:45;;;;;;;14.73;10.27;;;;;;;;;;5078964;28;20716;-80
2021/08/25 03:18:13;;;;;;;13.10;10.53;;;;;;;;;;5083172;28;20569;-80
2021/08/25 03:20:40;;;;;;;11.03;9.93;;;;;;;;;;5073563;28;20226;-80
2021/08/25 03:23:07;;;;;;;13.93;10.87;;;;;;;;;;5083978;28;20226;-80
2021/08/25 03:25:35;;;;;;;14.90;10.43;;;;;;;;;;5084503;28;20281;-80
2021/08/25 03:28:04;;;;;;;11.93;10.47;;;;;;;;;;5091437;28;20757;-80
2021/08/25 03:30:31;;;;;;;13.67;10.17;;;;;;;;;;5075472;28;20294;-80
2021/08/25 03:32:58;;;;;;;13.63;10.63;;;;;;;;;;5093326;28;20301;-81
2021/08/25 03:35:25;;;;;;;13.53;10.30;;;;;;;;;;5080487;28;20238;-80
2021/08/25 03:37:52;;;;;;;16.00;10.63;;;;;;;;;;5090347;28;20310;-80
2021/08/25 03:40:19;;;;;;;12.67;10.13;;;;;;;;;;5087417;28;20214;-80
2021/08/25 03:42:48;;;;;;;13.00;10.47;;;;;;;;;;5092809;28;20209;-80
2021/08/25 03:45:17;;;;;;;15.70;10.63;;;;;;;;;;5082733;28;20674;-80
2021/08/25 03:47:44;;;;;;;17.27;10.77;;;;;;;;;;5079264;28;20210;-80
2021/08/25 03:50:11;;;;;;;16.50;10.27;;;;;;;;;;5076938;28;20226;-80
2021/08/25 03:52:39;;;;;;;13.33;10.97;;;;;;;;;;5075761;28;20230;-80
2021/08/25 03:55:06;;;;;;;14.10;10.97;;;;;;;;;;5093023;28;20230;-79
2021/08/25 03:57:33;;;;;;;15.50;11.03;;;;;;;;;;5089132;28;20319;-80
2021/08/25 04:00:01;;;;;;;14.37;10.60;;;;;;;;;;5085567;28;20226;-80
2021/08/25 04:02:30;;;;;;;12.97;10.07;;;;;;;;;;5072518;28;20297;-80
2021/08/25 04:04:57;;;;;;;15.10;10.53;;;;;;;;;;5072112;28;20290;-81
2021/08/25 04:07:24;;;;;;;12.40;10.93;;;;;;;;;;5072120;28;20274;-80
2021/08/25 04:09:51;;;;;;;14.37;10.97;;;;;;;;;;5078974;28;20285;-80
2021/08/25 04:12:18;;;;;;;14.87;11.07;;;;;;;;;;5091396;28;20248;-80
2021/08/25 04:14:46;;;;;;;15.13;11.33;;;;;;;;;;5090396;28;20570;-80
2021/08/25 04:17:13;;;;;;;13.17;10.37;;;;;;;;;;5083895;28;20322;-80
2021/08/25 04:19:42;;;;;;;13.03;11.07;;;;;;;;;;5091591;28;20230;-81
2021/08/25 04:22:09;;;;;;;15.07;10.93;;;;;;;;;;5092494;28;20245;-80
2021/08/25 04:24:36;;;;;;;15.33;11.87;;;;;;;;;;5092513;28;20248;-80
2021/08/25 04:27:04;;;;;;;13.77;10.83;;;;;;;;;;5091690;28;20282;-80
2021/08/25 04:29:31;;;;;;;15.97;11.23;;;;;;;;;;5087376;28;20195;-80
2021/08/25 04:31:58;;;;;;;13.67;11.40;;;;;;;;;;5072208;28;20225;-80
2021/08/25 04:34:25;;;;;;;13.43;10.97;;;;;;;;;;5071825;28;20282;-80
2021/08/25 04:36:54;;;;;;;16.23;11.13;;;;;;;;;;5087839;28;20417;-80
2021/08/25 04:39:21;;;;;;;14.43;11.40;;;;;;;;;;5080100;28;20339;-80
2021/08/25 04:41:48;;;;;;;16.20;11.50;;;;;;;;;;5089752;28;20226;-80
2021/08/25 04:44:16;;;;;;;15.30;12.00;;;;;;;;;;5081989;28;20274;-80
2021/08/25 04:46:43;;;;;;;16.37;12.43;;;;;;;;;;5071924;28;20282;-80
2021/08/25 04:49:10;;;;;;;15.47;11.97;;;;;;;;;;5079429;28;20281;-81
2021/08/25 04:51:37;;;;;;;15.27;12.30;;;;;;;;;;5089922;28;20226;-80
2021/08/25 04:54:06;;;;;;;18.23;12.07;;;;;;;;;;5091481;28;20285;-80
2021/08/25 04:56:33;;;;;;;17.40;12.70;;;;;;;;;;5091240;28;20329;-80
2021/08/25 04:59:00;;;;;;;16.80;12.03;;;;;;;;;;5085449;28;20609;-80
2021/08/25 05:01:27;;;;;;;15.73;12.23;;;;;;;;;;5075060;28;20336;-80
2021/08/25 05:03:55;;;;;;;16.93;12.43;;;;;;;;;;5071804;28;20245;-81
2021/08/25 05:06:22;;;;;;;16.40;13.10;;;;;;;;;;5088761;28;20727;-80
2021/08/25 05:08:49;;;;;;;16.80;12.50;;;;;;;;;;5091496;28;20626;-81
2021/08/25 05:11:17;;;;;;;17.33;12.47;;;;;;;;;;5081957;28;20222;-80
2021/08/25 05:13:45;;;;;;;16.03;13.63;;;;;;;;;;5091592;28;20657;-80
2021/08/25 05:16:12;;;;;;;17.40;12.73;;;;;;;;;;5089021;28;20285;-81
2021/08/25 05:18:40;;;;;;;19.37;13.10;;;;;;;;;;5088068;28;20910;-80
2021/08/25 05:21:07;;;;;;;19.03;13.30;;;;;;;;;;5087359;28;20209;-80
2021/08/25 05:23:35;;;;;;;17.17;13.00;;;;;;;;;;5075396;28;20226;-81
2021/08/25 05:26:03;;;;;;;17.93;13.00;;;;;;;;;;5075813;28;20196;-80
2021/08/25 05:28:31;;;;;;;15.23;12.60;;;;;;;;;;5075501;28;20222;-80
2021/08/25 05:30:58;;;;;;;14.33;12.30;;;;;;;;;;5094383;28;20686;-81
2021/08/25 05:33:26;;;;;;;15.20;11.90;;;;;;;;;;5095563;28;20290;-81
2021/08/25 05:35:53;;;;;;;16.37;12.13;;;;;;;;;;5075625;28;20737;-81
2021/08/25 05:38:20;;;;;;;15.93;12.30;;;;;;;;;;5080696;28;20667;-82
2021/08/25 05:40:47;;;;;;;14.63;12.10;;;;;;;;;;5074672;28;20575;-81
2021/08/25 05:43:17;;;;;;;16.27;12.03;;;;;;;;;;5082762;28;20302;-81
2021/08/25 05:45:46;;;;;;;15.57;12.10;;;;;;;;;;5084726;28;20195;-84
2021/08/25 05:48:14;;;;;;;15.67;12.20;;;;;;;;;;5088685;28;20229;-84
2021/08/25 05:50:41;;;;;;;14.53;11.33;;;;;;;;;;5080906;28;20673;-82
2021/08/25 05:53:09;;;;;;;16.23;11.67;;;;;;;;;;5075013;28;20230;-81
2021/08/25 05:55:38;;;;;;;15.80;11.67;;;;;;;;;;5074654;28;20204;-81
2021/08/25 05:58:05;;;;;;;15.20;11.03;;;;;;;;;;5084302;28;20247;-81
2021/08/25 06:00:32;;;;;;;13.53;10.97;;;;;;;;;;5086591;28;20231;-83
2021/08/25 06:03:01;;;;;;;13.63;10.57;;;;;;;;;;5074131;28;20238;-81
2021/08/25 06:05:28;;;;;;;13.63;10.57;;;;;;;;;;5086501;28;20368;-82
2021/08/25 06:07:56;;;;;;;13.67;9.90;;;;;;;;;;5076518;28;20245;-81
2021/08/25 06:10:23;;;;;;;12.17;9.80;;;;;;;;;;5091111;28;20260;-82
2021/08/25 06:12:50;;;;;;;13.37;9.20;;;;;;;;;;5092160;28;20236;-81
2021/08/25 06:15:18;;;;;;;12.60;9.00;;;;;;;;;;5083704;28;20709;-81
2021/08/25 06:17:45;;;;;;;11.67;8.77;;;;;;;;;;5073920;28;20219;-81
2021/08/25 06:20:14;;;;;;;9.33;8.33;;;;;;;;;;5074614;28;20306;-82
2021/08/25 06:22:41;;;;;;;13.77;8.70;;;;;;;;;;5074441;28;20285;-82
2021/08/25 06:25:09;;;;;;;14.00;8.30;;;;;;;;;;5087425;28;20226;-82
2021/08/25 06:27:37;;;;;;;11.27;8.63;;;;;;;;;;5094161;28;20246;-82
2021/08/25 06:30:04;;;;;;;10.43;8.17;;;;;;;;;;5080506;28;20222;-82
2021/08/25 06:32:31;;;;;;;11.10;8.03;;;;;;;;;;5091173;28;20285;-82
2021/08/25 06:34:59;;;;;;;12.70;8.23;;;;;;;;;;5094039;28;20677;-82
2021/08/25 06:37:27;;;;;;;10.17;8.17;;;;;;;;;;5094294;28;20305;-83
2021/08/25 06:39:54;;;;;;;10.93;7.75;;;;;;;;;;5092714;28;20218;-82
2021/08/25 06:42:22;;;;;;;11.18;7.93;;;;;;;;;;5080769;28;20227;-82
2021/08/25 06:44:50;;;;;;;11.07;8.00;;;;;;;;;;5081278;28;20227;-82
2021/08/25 06:47:17;;;;;;;10.23;7.93;;;;;;;;;;5081558;28;20602;-82
2021/08/25 06:49:44;;;;;;;9.15;7.78;;;;;;;;;;5075698;28;20227;-82
2021/08/25 06:52:12;;;;;;;12.10;7.93;;;;;;;;;;5089718;28;20285;-82
2021/08/25 06:54:40;;;;;;;10.27;7.85;;;;;;;;;;5078331;28;20231;-82
2021/08/25 06:57:08;;;;;;;9.93;7.57;;;;;;;;;;5079164;28;20235;-83
2021/08/25 06:59:35;;;;;;;9.05;7.30;;;;;;;;;;5074005;28;20243;-82
2021/08/25 07:02:02;;;;;;;8.95;7.40;;;;;;;;;;5079862;28;20797;-82
2021/08/25 07:04:29;;;;;;;10.35;7.53;;;;;;;;;;5090007;28;20226;-82
2021/08/25 07:06:57;;;;;;;9.25;7.55;;;;;;;;;;5088022;28;20289;-82
2021/08/25 07:09:24;;;;;;;9.18;7.03;;;;;;;;;;5092676;28;20286;-83
2021/08/25 07:11:52;;;;;;;9.32;6.97;;;;;;;;;;5077784;28;20233;-82
2021/08/25 07:14:20;;;;;;;8.00;6.95;;;;;;;;;;5083913;28;20217;-83
2021/08/25 07:16:47;;;;;;;9.15;7.43;;;;;;;;;;5085964;28;20285;-83
2021/08/25 07:19:14;;;;;;;8.48;6.93;;;;;;;;;;5092217;28;20309;-82
2021/08/25 07:21:41;;;;;;;8.73;6.88;;;;;;;;;;5083955;28;20199;-83
2021/08/25 07:24:08;;;;;;;8.25;6.82;;;;;;;;;;5086960;28;20290;-83
2021/08/25 07:26:36;;;;;;;7.75;6.68;;;;;;;;;;5082793;28;20263;-83
2021/08/25 07:29:04;;;;;;;8.20;6.90;;;;;;;;;;5088007;28;20278;-83
2021/08/25 07:31:32;;;;;;;7.40;6.70;;;;;;;;;;5088002;28;20293;-82
2021/08/25 07:33:59;;;;;;;7.53;6.13;;;;;;;;;;5081679;28;20289;-82
2021/08/25 07:36:27;;;;;;;7.50;6.30;;;;;;;;;;5082671;28;20289;-82
2021/08/25 07:38:54;;;;;;;8.07;6.78;;;;;;;;;;5092006;28;20225;-82
2021/08/25 07:41:21;;;;;;;8.60;6.50;;;;;;;;;;5080860;28;20294;-83
2021/08/25 07:43:49;;;;;;;9.35;6.35;;;;;;;;;;5082570;28;20199;-82
2021/08/25 07:46:17;;;;;;;8.25;6.47;;;;;;;;;;5082443;28;20290;-82
2021/08/25 07:48:44;;;;;;;7.38;6.45;;;;;;;;;;5072913;28;20274;-82
2021/08/25 07:51:12;;;;;;;8.10;6.05;;;;;;;;;;5089236;28;20202;-82
2021/08/25 07:53:39;;;;;;;7.22;6.53;;;;;;;;;;5091386;28;20198;-82
2021/08/25 07:56:06;;;;;;;9.27;6.38;;;;;;;;;;5092125;28;20258;-82
2021/08/25 07:58:33;;;;;;;8.13;6.28;;;;;;;;;;5079692;28;20329;-82
2021/08/25 08:01:01;;;;;;;8.68;6.13;;;;;;;;;;5081906;28;20586;-82
2021/08/25 08:03:29;;;;;;;7.97;6.35;;;;;;;;;;5080390;28;20316;-82
2021/08/25 08:05:57;;;;;;;9.18;5.85;;;;;;;;;;5080866;28;20310;-82
2021/08/25 08:08:25;;;;;;;7.05;6.35;;;;;;;;;;5088003;28;20381;-82
2021/08/25 08:10:53;;;;;;;11.52;7.03;;;;;;;;;;5083181;28;20521;-81
2021/08/25 08:13:21;;;;;;;7.80;6.28;;;;;;;;;;5087645;28;20211;-82
2021/08/25 08:15:48;;;;;;;7.45;6.50;;;;;;;;;;5092342;28;20289;-81
2021/08/25 08:18:20;;;;;;;7.93;6.50;;;;;;;;;;5076155;28;20777;-82
2021/08/25 08:20:49;;;;;;;7.15;6.28;;;;;;;;;;5087213;28;20277;-83
2021/08/25 08:23:17;;;;;;;11.57;7.00;;;;;;;;;;5079504;28;20253;-82
2021/08/25 08:25:46;;;;;;;7.53;6.72;;;;;;;;;;5091684;28;20285;-82
2021/08/25 08:28:13;;;;;;;8.38;6.97;;;;;;;;;;5091610;28;20198;-82
2021/08/25 08:30:40;;;;;;;6.78;6.18;;;;;;;;;;5077694;28;20290;-82
2021/08/25 08:33:07;;;;;;;7.30;6.40;;;;;;;;;;5088188;28;20233;-83
2021/08/25 08:35:36;;;;;;;7.80;6.15;;;;;;;;;;5077343;28;20699;-83
2021/08/25 08:38:05;;;;;;;7.95;6.55;;;;;;;;;;5089033;28;20218;-83
2021/08/25 08:40:32;;;;;;;9.60;6.60;;;;;;;;;;5085449;28;20289;-83
2021/08/25 08:43:07;;;;;;;8.68;6.55;;;;;;;;;;5088956;28;20221;-83
2021/08/25 08:45:35;;;;;;;7.45;6.30;;;;;;;;;;5079629;28;20198;-83
2021/08/25 08:48:03;;;;;;;8.32;6.72;;;;;;;;;;5081670;28;20285;-83
2021/08/25 08:50:30;;;;;;;7.18;6.28;;;;;;;;;;5082706;28;20293;-82
2021/08/25 08:52:58;;;;;;;7.25;6.28;;;;;;;;;;5082067;28;20289;-83
2021/08/25 08:55:26;;;;;;;6.75;6.05;;;;;;;;;;5085375;28;20256;-83
2021/08/25 08:57:54;;;;;;;7.95;5.68;;;;;;;;;;5091925;28;20321;-83
2021/08/25 09:00:21;;;;;;;6.45;5.85;;;;;;;;;;5096646;28;20686;-83
2021/08/25 09:02:48;;;;;;;7.20;5.90;;;;;;;;;;5087469;28;20218;-83
2021/08/25 09:05:20;;;;;;;7.32;6.03;;;;;;;;;;5090545;28;20231;-83
2021/08/25 09:07:51;;;;;;;5.88;5.32;;;;;;;;;;5081742;28;20280;-83
2021/08/25 09:10:23;;;;;;;6.38;5.78;;;;;;;;;;5093601;28;20221;-83
2021/08/25 09:12:52;;;;;;;6.90;5.78;;;;;;;;;;5077014;28;20272;-83
2021/08/25 09:15:19;;;;;;;6.35;5.75;;;;;;;;;;5082615;28;20212;-83
2021/08/25 09:17:47;;;;;;;6.07;5.20;;;;;;;;;;5085803;28;20265;-83
2021/08/25 09:20:14;;;;;;;6.35;5.60;;;;;;;;;;5080023;28;20282;-83
2021/08/25 09:22:41;;;;;;;6.28;5.10;;;;;;;;;;5093112;28;20230;-83
2021/08/25 09:25:09;;;;;;;6.55;5.22;;;;;;;;;;5093710;28;20289;-83
2021/08/25 09:27:36;;;;;;;8.18;5.38;;;;;;;;;;5092602;28;20277;-83
2021/08/25 09:30:06;;;;;;;5.85;5.35;;;;;;;;;;5082765;28;20227;-83
2021/08/25 09:32:34;;;;;;;5.75;5.18;;;;;;;;;;5084415;28;20197;-83
2021/08/25 09:35:02;;;;;;;5.78;5.28;;;;;;;;;;5083470;28;20226;-83
2021/08/25 09:37:30;;;;;;;6.80;4.97;;;;;;;;;;5090894;28;20260;-83
2021/08/25 09:39:59;;;;;;;5.22;4.68;;;;;;;;;;5094903;28;20318;-83
2021/08/25 09:42:27;;;;;;;6.22;4.40;;;;;;;;;;5090795;28;20226;-83
2021/08/25 09:45:06;;;;;;;5.38;4.68;;;;;;;;;;5092807;28;20628;-83
2021/08/25 09:47:47;;;;;;;5.03;4.20;;;;;;;;;;5069797;28;20194;-83
2021/08/25 09:50:16;;;;;;;5.47;4.68;;;;;;;;;;5077823;28;20198;-84
2021/08/25 09:52:43;;;;;;;6.05;4.43;;;;;;;;;;5091410;28;20206;-83
2021/08/25 09:55:10;;;;;;;6.40;4.97;;;;;;;;;;5090692;28;20648;-83
2021/08/25 09:57:38;;;;;;;5.95;4.95;;;;;;;;;;5081868;28;20314;-83
2021/08/25 10:00:09;;;;;;;4.82;4.30;;;;;;;;;;5086213;28;20306;-83
2021/08/25 10:02:36;;;;;;;6.35;4.65;;;;;;;;;;5079385;28;20858;-83
2021/08/25 10:05:03;;;;;;;4.95;4.45;;;;;;;;;;5090287;28;20238;-83
2021/08/25 10:07:30;;;;;;;5.25;4.28;;;;;;;;;;5087815;28;20274;-83
2021/08/25 10:09:58;;;;;;;5.38;4.35;;;;;;;;;;5074103;28;20683;-83
2021/08/25 10:12:25;;;;;;;4.40;4.00;;;;;;;;;;5075032;28;20199;-83
2021/08/25 10:14:52;;;;;;;5.22;4.20;;;;;;;;;;5090887;28;20210;-83
2021/08/25 10:17:41;;;;;;;5.43;4.38;;;;;;;;;;5078181;28;20203;-83
2021/08/25 10:20:27;;;;;;;5.03;4.10;;;;;;;;;;5091749;28;20244;-83
2021/08/25 10:22:55;;;;;;;4.70;3.88;;;;;;;;;;5089168;28;20204;-83
2021/08/25 10:25:26;;;;;;;5.43;3.97;;;;;;;;;;5082894;28;20225;-83
2021/08/25 10:28:11;;;;;;;4.20;3.80;;;;;;;;;;5087146;28;20207;-83
2021/08/25 10:30:53;;;;;;;4.10;3.70;;;;;;;;;;5087403;28;20233;-83
2021/08/25 10:33:22;;;;;;;4.95;3.47;;;;;;;;;;5090194;28;20865;-83
2021/08/25 10:35:49;;;;;;;4.90;3.80;;;;;;;;;;5080607;28;20296;-83
2021/08/25 10:38:18;;;;;;;4.55;3.50;;;;;;;;;;5080129;28;20241;-83
2021/08/25 10:40:45;;;;;;;5.05;3.90;;;;;;;;;;5076406;28;20388;-83
2021/08/25 10:43:32;;;;;;;5.03;4.20;;;;;;;;;;5087985;28;20230;-83
2021/08/25 10:45:59;;;;;;;5.05;3.80;;;;;;;;;;5082728;28;20294;-83
2021/08/25 10:48:44;;;;;;;5.57;3.70;;;;;;;;;;5090531;28;20281;-83
2021/08/25 10:51:39;;;;;;;4.20;3.58;;;;;;;;;;5091832;28;20234;-83
2021/08/25 10:54:08;;;;;;;4.40;3.83;;;;;;;;;;5081534;28;20199;-83
2021/08/25 10:56:40;;;;;;;5.22;3.70;;;;;;;;;;5093115;28;20253;-83
2021/08/25 10:59:11;;;;;;;3.85;3.50;;;;;;;;;;5077282;28;20297;-83
2021/08/25 11:01:39;;;;;;;4.80;3.80;;;;;;;;;;5084500;28;20326;-84
2021/08/25 11:04:07;;;;;;;5.45;4.00;;;;;;;;;;5081836;28;20206;-84
2021/08/25 11:06:36;;;;;;;4.10;3.60;;;;;;;;;;5092323;28;20281;-83
2021/08/25 11:09:24;;;;;;;3.55;3.25;;;;;;;;;;5093306;28;20203;-83
2021/08/25 11:11:55;;;;;;;4.97;3.70;;;;;;;;;;5087244;28;20207;-83
2021/08/25 11:14:23;;;;;;;5.07;3.90;;;;;;;;;;5092924;28;20285;-82
2021/08/25 11:16:51;;;;;;;5.97;3.72;;;;;;;;;;5090488;28;20285;-83
2021/08/25 11:19:25;;;;;;;4.50;3.60;;;;;;;;;;5076301;28;20324;-83
2021/08/25 11:21:53;;;;;;;4.55;3.83;;;;;;;;;;5073699;28;20198;-83
2021/08/25 11:24:20;;;;;;;4.07;3.45;;;;;;;;;;5085704;28;20278;-83
2021/08/25 11:26:48;;;;;;;4.68;3.95;;;;;;;;;;5081963;28;20614;-83
2021/08/25 11:29:21;;;;;;;5.35;3.72;;;;;;;;;;5088284;28;20281;-83
2021/08/25 11:31:49;;;;;;;3.75;3.42;;;;;;;;;;5084364;28;20913;-84
2021/08/25 11:34:16;;;;;;;4.00;3.60;;;;;;;;;;5082257;28;20282;-84
2021/08/25 11:36:57;;;;;;;4.72;3.85;;;;;;;;;;5082441;28;20234;-83
2021/08/25 11:39:25;;;;;;;4.55;4.10;;;;;;;;;;5089622;28;21084;-83
2021/08/25 11:41:53;;;;;;;4.38;3.70;;;;;;;;;;5088696;28;20216;-82
2021/08/25 11:44:38;;;;;;;4.20;3.80;;;;;;;;;;5075412;28;20191;-83
2021/08/25 11:47:16;;;;;;;4.47;3.60;;;;;;;;;;5085432;28;20281;-84
2021/08/25 11:49:44;;;;;;;4.13;3.60;;;;;;;;;;5086950;28;20187;-83
2021/08/25 11:52:11;;;;;;;4.43;3.55;;;;;;;;;;5077109;28;20640;-84
2021/08/25 11:54:39;;;;;;;3.83;3.53;;;;;;;;;;5076979;28;20286;-84
2021/08/25 11:57:08;;;;;;;4.10;3.50;;;;;;;;;;5076623;28;20322;-83
2021/08/25 11:59:36;;;;;;;3.78;3.38;;;;;;;;;;5077662;28;20277;-84
2021/08/25 12:02:05;;;;;;;4.53;3.60;;;;;;;;;;5083707;28;20231;-84
2021/08/25 12:04:33;;;;;;;4.32;3.65;;;;;;;;;;5071835;28;20290;-84
2021/08/25 12:07:00;;;;;;;4.25;3.47;;;;;;;;;;5075719;28;20202;-84
2021/08/25 12:09:31;;;;;;;4.82;3.53;;;;;;;;;;5091152;28;20186;-84
2021/08/25 12:11:59;;;;;;;4.53;3.47;;;;;;;;;;5087078;28;20281;-84
2021/08/25 12:14:26;;;;;;;4.45;3.40;;;;;;;;;;5086238;28;20238;-84
2021/08/25 12:17:04;;;;;;;4.35;3.75;;;;;;;;;;5088102;28;20226;-84
2021/08/25 12:19:34;;;;;;;4.68;3.38;;;;;;;;;;5073807;28;20215;-84
2021/08/25 12:22:16;;;;;;;4.15;3.42;;;;;;;;;;5080729;28;20199;-79
2021/08/25 12:24:44;;;;;;;4.75;3.63;;;;;;;;;;5080155;28;20278;-79
2021/08/25 12:27:12;;;;;;;5.88;3.58;;;;;;;;;;5089581;28;20281;-79
2021/08/25 12:29:43;;;;;;;3.90;3.40;;;;;;;;;;5087516;28;20191;-79
2021/08/25 12:32:10;;;;;;;5.00;3.67;;;;;;;;;;5076879;28;20253;-79
2021/08/25 12:34:54;;;;;;;4.15;3.67;;;;;;;;;;5086392;28;20256;-79
2021/08/25 12:37:22;;;;;;;3.60;3.20;;;;;;;;;;5087626;28;20202;-79
2021/08/25 12:39:49;;;;;;;4.80;3.70;;;;;;;;;;5073260;28;20635;-80
2021/08/25 12:42:16;;;;;;;5.38;3.63;;;;;;;;;;5072105;28;20260;-79
2021/08/25 12:44:43;;;;;;;3.78;3.38;;;;;;;;;;5076801;28;20233;-79
2021/08/25 12:47:12;;;;;;;5.63;3.50;;;;;;;;;;5091791;28;20282;-79
2021/08/25 12:49:39;;;;;;;7.85;3.65;;;;;;;;;;5089991;28;20198;-79
2021/08/25 12:52:08;;;;;;;3.83;3.40;;;;;;;;;;5090620;28;20693;-78
2021/08/25 12:54:36;;;;;;;4.05;3.25;;;;;;;;;;5092639;28;20238;-78
2021/08/25 12:57:03;;;;;;;5.55;3.63;;;;;;;;;;5091738;28;20238;-79
2021/08/25 12:59:30;;;;;;;6.03;3.63;;;;;;;;;;5077375;28;20264;-78
2021/08/25 13:01:58;;;;;;;7.05;3.60;;;;;;;;;;5089118;28;20305;-78
2021/08/25 13:04:25;;;;;;;5.05;3.75;;;;;;;;;;5077178;28;20285;-77
2021/08/25 13:06:52;;;;;;;4.22;3.45;;;;;;;;;;5079889;28;20195;-77
2021/08/25 13:09:21;;;;;;;4.78;3.30;;;;;;;;;;5082347;28;20282;-78
2021/08/25 13:11:48;;;;;;;5.32;3.63;;;;;;;;;;5078873;28;20200;-78
2021/08/25 13:14:15;;;;;;;4.28;3.70;;;;;;;;;;5081230;28;20191;-79
2021/08/25 13:16:42;;;;;;;5.25;3.50;;;;;;;;;;5074754;28;20205;-79
2021/08/25 13:19:10;;;;;;;7.25;3.85;;;;;;;;;;5079394;28;20206;-79
2021/08/25 13:21:37;;;;;;;5.22;3.75;;;;;;;;;;5073648;28;20223;-78
2021/08/25 13:24:04;;;;;;;4.50;3.58;;;;;;;;;;5079244;28;20238;-78
2021/08/25 13:26:33;;;;;;;6.00;3.55;;;;;;;;;;5079114;28;20282;-78
2021/08/25 13:29:01;;;;;;;4.70;3.58;;;;;;;;;;5080473;28;20711;-78
2021/08/25 13:31:28;;;;;;;4.75;3.65;;;;;;;;;;5079990;28;20528;-79
2021/08/25 13:33:55;;;;;;;5.78;3.80;;;;;;;;;;5090951;28;20213;-78
2021/08/25 13:36:24;;;;;;;4.07;3.30;;;;;;;;;;5080392;28;20230;-78
2021/08/25 13:38:51;;;;;;;5.53;3.45;;;;;;;;;;5089444;28;20195;-78
2021/08/25 13:41:18;;;;;;;4.70;3.65;;;;;;;;;;5080927;28;20310;-78
2021/08/25 13:43:47;;;;;;;5.97;4.10;;;;;;;;;;5086247;28;20252;-79
2021/08/25 13:46:14;;;;;;;4.55;3.90;;;;;;;;;;5084641;28;20206;-79
2021/08/25 13:48:41;;;;;;;5.05;3.75;;;;;;;;;;5084074;28;20337;-79
2021/08/25 13:51:09;;;;;;;5.28;3.53;;;;;;;;;;5084377;28;20282;-78
2021/08/25 13:53:37;;;;;;;4.38;3.58;;;;;;;;;;5084226;28;20199;-78
2021/08/25 13:56:04;;;;;;;5.35;3.83;;;;;;;;;;5086765;28;20314;-78
2021/08/25 13:58:31;;;;;;;6.97;3.72;;;;;;;;;;5076101;28;20195;-78
2021/08/25 14:01:00;;;;;;;5.70;4.22;;;;;;;;;;5094890;28;20312;-78
2021/08/25 14:03:27;;;;;;;7.82;3.95;;;;;;;;;;5090862;28;20326;-78
2021/08/25 14:05:54;;;;;;;4.70;3.70;;;;;;;;;;5095031;28;20289;-77
2021/08/25 14:08:21;;;;;;;5.07;4.00;;;;;;;;;;5094865;28;20304;-78
2021/08/25 14:10:48;;;;;;;5.25;3.63;;;;;;;;;;5094566;28;20989;-77
2021/08/25 14:13:15;;;;;;;5.32;3.85;;;;;;;;;;5086921;28;20278;-78
2021/08/25 14:15:42;;;;;;;6.07;3.63;;;;;;;;;;5074097;28;20203;-78
2021/08/25 14:18:11;;;;;;;6.22;3.78;;;;;;;;;;5083967;28;20277;-78
2021/08/25 14:20:38;;;;;;;6.47;4.00;;;;;;;;;;5092430;28;20249;-78
2021/08/25 14:23:06;;;;;;;6.00;3.85;;;;;;;;;;5094774;28;20289;-78
2021/08/25 14:25:33;;;;;;;5.63;3.45;;;;;;;;;;5094823;28;20286;-78
2021/08/25 14:28:00;;;;;;;4.78;3.60;;;;;;;;;;5094431;28;20281;-78
2021/08/25 14:30:28;;;;;;;5.95;3.88;;;;;;;;;;5094402;28;20229;-78
2021/08/25 14:32:55;;;;;;;5.05;3.67;;;;;;;;;;5075782;28;20279;-78
2021/08/25 14:35:24;;;;;;;6.68;4.25;;;;;;;;;;5074182;28;20202;-78
2021/08/25 14:37:51;;;;;;;5.50;3.92;;;;;;;;;;5074136;28;20199;-78
2021/08/25 14:40:18;;;;;;;5.60;3.85;;;;;;;;;;5073985;28;20310;-78